sensor_id;sensor_type;location;lat;lon;timestamp;pressure;altitude;pressure_sealevel;temperature;humidity
17254;BME280;32542;52.832;13.816;2023-02-21T00:02:08;100905.34;;;21.85;47.61
17254;BME280;32542;52.832;13.816;2023-02-21T00:05:29;100916.00;;;21.85;47.68
17254;BME280;32542;52.832;13.816;2023-02-21T00:08:50;100903.69;;;21.83;47.67
17254;BME280;32542;52.832;13.816;2023-02-21T00:12:10;100909.03;;;21.83;47.74
17254;BME280;32542;52.832;13.816;2023-02-21T00:15:30;100905.53;;;21.81;47.74
17254;BME280;32542;52.832;13.816;2023-02-21T00:18:52;100904.75;;;21.78;47.73
17254;BME280;32542;52.832;13.816;2023-02-21T00:22:13;100899.50;;;21.77;47.88
17254;BME280;32542;52.832;13.816;2023-02-21T00:25:33;100889.78;;;21.76;47.87
17254;BME280;32542;52.832;13.816;2023-02-21T00:28:53;100887.19;;;21.74;47.99
17254;BME280;32542;52.832;13.816;2023-02-21T00:32:14;100884.63;;;21.73;47.96
17254;BME280;32542;52.832;13.816;2023-02-21T00:35:35;100886.31;;;21.74;48.02
17254;BME280;32542;52.832;13.816;2023-02-21T00:38:56;100884.63;;;21.73;47.93
17254;BME280;32542;52.832;13.816;2023-02-21T00:42:16;100881.94;;;21.73;48.04
17254;BME280;32542;52.832;13.816;2023-02-21T00:45:37;100879.28;;;21.73;48.06
17254;BME280;32542;52.832;13.816;2023-02-21T00:48:58;100876.72;;;21.71;47.98
17254;BME280;32542;52.832;13.816;2023-02-21T00:52:20;100864.31;;;21.70;48.15
17254;BME280;32542;52.832;13.816;2023-02-21T00:55:40;100867.06;;;21.69;48.11
17254;BME280;32542;52.832;13.816;2023-02-21T00:59:01;100876.84;;;21.68;48.24
17254;BME280;32542;52.832;13.816;2023-02-21T01:02:21;100877.84;;;21.66;48.16
17254;BME280;32542;52.832;13.816;2023-02-21T01:05:41;100868.94;;;21.67;48.17
17254;BME280;32542;52.832;13.816;2023-02-21T01:09:04;100862.81;;;21.65;48.16
17254;BME280;32542;52.832;13.816;2023-02-21T01:12:26;100874.31;;;21.65;48.24
17254;BME280;32542;52.832;13.816;2023-02-21T01:15:47;100870.81;;;21.65;48.18
17254;BME280;32542;52.832;13.816;2023-02-21T01:19:08;100861.09;;;21.64;48.24
17254;BME280;32542;52.832;13.816;2023-02-21T01:22:29;100869.06;;;21.64;48.28
17254;BME280;32542;52.832;13.816;2023-02-21T01:25:51;100877.06;;;21.64;48.33
17254;BME280;32542;52.832;13.816;2023-02-21T01:29:11;100867.38;;;21.63;48.25
17254;BME280;32542;52.832;13.816;2023-02-21T01:32:33;100872.69;;;21.63;48.34
17254;BME280;32542;52.832;13.816;2023-02-21T01:35:54;100874.56;;;21.61;48.36
17254;BME280;32542;52.832;13.816;2023-02-21T01:39:14;100874.56;;;21.61;48.32
17254;BME280;32542;52.832;13.816;2023-02-21T01:42:36;100866.63;;;21.59;48.38
17254;BME280;32542;52.832;13.816;2023-02-21T01:45:57;100865.75;;;21.59;48.34
17254;BME280;32542;52.832;13.816;2023-02-21T01:49:18;100864.06;;;21.58;48.39
17254;BME280;32542;52.832;13.816;2023-02-21T01:52:39;100856.16;;;21.56;48.31
17254;BME280;32542;52.832;13.816;2023-02-21T01:56:00;100862.31;;;21.57;48.36
17254;BME280;32542;52.832;13.816;2023-02-21T01:59:24;100858.81;;;21.56;48.33
17254;BME280;32542;52.832;13.816;2023-02-21T02:02:50;100851.66;;;21.57;48.41
17254;BME280;32542;52.832;13.816;2023-02-21T02:06:14;100854.31;;;21.57;48.43
17254;BME280;32542;52.832;13.816;2023-02-21T02:09:36;100856.16;;;21.56;48.38
17254;BME280;32542;52.832;13.816;2023-02-21T02:13:14;100851.75;;;21.55;48.39
17254;BME280;32542;52.832;13.816;2023-02-21T02:16:28;100854.41;;;21.55;48.40
17254;BME280;32542;52.832;13.816;2023-02-21T02:20:01;100844.69;;;21.54;48.52
17254;BME280;32542;52.832;13.816;2023-02-21T02:27:06;100850.09;;;21.53;48.40
17254;BME280;32542;52.832;13.816;2023-02-21T02:30:49;100854.56;;;21.52;48.45
17254;BME280;32542;52.832;13.816;2023-02-21T02:37:43;100857.28;;;21.51;48.42
17254;BME280;32542;52.832;13.816;2023-02-21T02:40:57;100854.63;;;21.51;48.42
17254;BME280;32542;52.832;13.816;2023-02-21T02:44:05;100850.25;;;21.50;48.49
17254;BME280;32542;52.832;13.816;2023-02-21T02:47:18;100846.63;;;21.51;48.52
17254;BME280;32542;52.832;13.816;2023-02-21T02:50:25;100858.16;;;21.51;48.43
17254;BME280;32542;52.832;13.816;2023-02-21T02:53:31;100859.03;;;21.52;48.56
17254;BME280;32542;52.832;13.816;2023-02-21T02:56:34;100857.28;;;21.51;48.42
17254;BME280;32542;52.832;13.816;2023-02-21T02:59:40;100873.28;;;21.51;48.41
17254;BME280;32542;52.832;13.816;2023-02-21T03:02:58;100882.22;;;21.50;48.47
17254;BME280;32542;52.832;13.816;2023-02-21T03:06:18;100872.50;;;21.49;48.48
17254;BME280;32542;52.832;13.816;2023-02-21T03:09:30;100889.44;;;21.48;48.51
17254;BME280;32542;52.832;13.816;2023-02-21T03:12:37;100883.22;;;21.47;48.43
17254;BME280;32542;52.832;13.816;2023-02-21T03:15:48;100877.91;;;21.47;48.46
17254;BME280;32542;52.832;13.816;2023-02-21T03:18:57;100880.56;;;21.47;48.58
17254;BME280;32542;52.832;13.816;2023-02-21T03:22:06;100891.31;;;21.46;48.53
17254;BME280;32542;52.832;13.816;2023-02-21T03:25:13;100889.44;;;21.48;48.53
17254;BME280;32542;52.832;13.816;2023-02-21T03:28:20;100896.47;;;21.49;48.58
17254;BME280;32542;52.832;13.816;2023-02-21T03:31:28;100876.91;;;21.50;48.56
17254;BME280;32542;52.832;13.816;2023-02-21T03:34:32;100883.94;;;21.51;48.44
17254;BME280;32542;52.832;13.816;2023-02-21T03:37:37;100900.78;;;21.51;48.47
17254;BME280;32542;52.832;13.816;2023-02-21T03:40:43;100904.25;;;21.53;48.33
17254;BME280;32542;52.832;13.816;2023-02-21T03:43:46;100900.66;;;21.54;48.47
17254;BME280;32542;52.832;13.816;2023-02-21T03:46:49;100911.22;;;21.56;48.48
17254;BME280;32542;52.832;13.816;2023-02-21T03:49:52;100920.88;;;21.58;48.41
17254;BME280;32542;52.832;13.816;2023-02-21T03:52:55;100913.72;;;21.59;48.40
17254;BME280;32542;52.832;13.816;2023-02-21T03:56:00;100919.94;;;21.59;48.44
17254;BME280;32542;52.832;13.816;2023-02-21T03:59:13;100935.03;;;21.59;48.51
17254;BME280;32542;52.832;13.816;2023-02-21T04:02:17;100929.72;;;21.59;48.39
17254;BME280;32542;52.832;13.816;2023-02-21T04:05:21;100932.34;;;21.60;48.50
17254;BME280;32542;52.832;13.816;2023-02-21T04:08:24;100945.56;;;21.62;48.48
17254;BME280;32542;52.832;13.816;2023-02-21T04:11:29;100936.66;;;21.63;48.39
17254;BME280;32542;52.832;13.816;2023-02-21T04:14:33;100929.44;;;21.65;48.46
17254;BME280;32542;52.832;13.816;2023-02-21T04:17:36;100936.50;;;21.66;48.41
17254;BME280;32542;52.832;13.816;2023-02-21T04:20:41;100940.03;;;21.66;48.39
17254;BME280;32542;52.832;13.816;2023-02-21T04:23:49;100941.81;;;21.66;48.41
17254;BME280;32542;52.832;13.816;2023-02-21T04:26:54;100945.34;;;21.66;48.40
17254;BME280;32542;52.832;13.816;2023-02-21T04:29:57;100940.03;;;21.66;48.30
17254;BME280;32542;52.832;13.816;2023-02-21T04:33:00;100936.41;;;21.67;48.41
17254;BME280;32542;52.832;13.816;2023-02-21T04:36:05;100935.56;;;21.67;48.37
17254;BME280;32542;52.832;13.816;2023-02-21T04:39:13;100934.59;;;21.68;48.26
17254;BME280;32542;52.832;13.816;2023-02-21T04:42:17;100946.16;;;21.68;48.28
17254;BME280;32542;52.832;13.816;2023-02-21T04:45:20;100934.59;;;21.68;48.36
17254;BME280;32542;52.832;13.816;2023-02-21T04:48:24;100932.91;;;21.67;48.23
17254;BME280;32542;52.832;13.816;2023-02-21T04:51:27;100931.03;;;21.69;48.33
17254;BME280;32542;52.832;13.816;2023-02-21T04:54:30;100918.63;;;21.68;48.30
17254;BME280;32542;52.832;13.816;2023-02-21T04:57:34;100911.50;;;21.68;48.39
17254;BME280;32542;52.832;13.816;2023-02-21T05:00:37;100918.63;;;21.68;48.32
17254;BME280;32542;52.832;13.816;2023-02-21T05:03:40;100916.81;;;21.68;48.29
17254;BME280;32542;52.832;13.816;2023-02-21T05:06:43;100923.94;;;21.68;48.21
17254;BME280;32542;52.832;13.816;2023-02-21T05:09:46;100924.91;;;21.67;48.38
17254;BME280;32542;52.832;13.816;2023-02-21T05:12:51;100932.91;;;21.67;48.33
17254;BME280;32542;52.832;13.816;2023-02-21T05:15:54;100932.03;;;21.66;48.28
17254;BME280;32542;52.832;13.816;2023-02-21T05:18:57;100942.69;;;21.66;48.45
17254;BME280;32542;52.832;13.816;2023-02-21T05:22:03;100945.44;;;21.65;48.36
17254;BME280;32542;52.832;13.816;2023-02-21T05:25:14;100944.47;;;21.66;48.38
17254;BME280;32542;52.832;13.816;2023-02-21T05:28:19;100942.81;;;21.63;48.35
17254;BME280;32542;52.832;13.816;2023-02-21T05:31:22;100949.03;;;21.64;48.34
17254;BME280;32542;52.832;13.816;2023-02-21T05:34:25;100945.50;;;21.63;48.45
17254;BME280;32542;52.832;13.816;2023-02-21T05:37:28;100950.91;;;21.62;48.45
17254;BME280;32542;52.832;13.816;2023-02-21T05:40:32;100948.16;;;21.63;48.50
17254;BME280;32542;52.832;13.816;2023-02-21T05:43:36;100955.38;;;21.61;48.42
17254;BME280;32542;52.832;13.816;2023-02-21T05:46:39;100967.78;;;21.62;48.54
17254;BME280;32542;52.832;13.816;2023-02-21T05:49:42;100973.97;;;21.63;48.39
17254;BME280;32542;52.832;13.816;2023-02-21T05:52:46;100965.19;;;21.61;48.50
17254;BME280;32542;52.832;13.816;2023-02-21T05:55:48;100967.84;;;21.61;48.44
17254;BME280;32542;52.832;13.816;2023-02-21T05:58:53;100975.84;;;21.61;48.48
17254;BME280;32542;52.832;13.816;2023-02-21T06:01:56;100979.44;;;21.60;48.47
17254;BME280;32542;52.832;13.816;2023-02-21T06:04:59;100977.69;;;21.59;48.57
17254;BME280;32542;52.832;13.816;2023-02-21T06:08:03;100983.88;;;21.59;48.46
17254;BME280;32542;52.832;13.816;2023-02-21T06:11:06;100992.84;;;21.58;48.65
17254;BME280;32542;52.832;13.816;2023-02-21T06:14:15;101003.50;;;21.58;48.52
17254;BME280;32542;52.832;13.816;2023-02-21T06:17:19;101004.41;;;21.57;48.60
17254;BME280;32542;52.832;13.816;2023-02-21T06:20:22;101002.63;;;21.58;48.59
17254;BME280;32542;52.832;13.816;2023-02-21T06:23:25;101003.50;;;21.58;48.52
17254;BME280;32542;52.832;13.816;2023-02-21T06:26:28;101008.81;;;21.58;48.67
17254;BME280;32542;52.832;13.816;2023-02-21T06:29:32;101007.97;;;21.58;48.49
17254;BME280;32542;52.832;13.816;2023-02-21T06:32:35;101008.88;;;21.57;48.58
17254;BME280;32542;52.832;13.816;2023-02-21T06:35:38;101014.22;;;21.57;48.51
17254;BME280;32542;52.832;13.816;2023-02-21T06:38:43;101022.19;;;21.57;48.61
17254;BME280;32542;52.832;13.816;2023-02-21T06:41:48;101030.19;;;21.57;48.69
17254;BME280;32542;52.832;13.816;2023-02-21T06:44:52;101023.94;;;21.58;48.67
17254;BME280;32542;52.832;13.816;2023-02-21T06:47:55;101031.94;;;21.58;48.61
17254;BME280;32542;52.832;13.816;2023-02-21T06:50:58;101030.16;;;21.58;48.58
17254;BME280;32542;52.832;13.816;2023-02-21T06:54:01;101025.66;;;21.59;48.71
17254;BME280;32542;52.832;13.816;2023-02-21T06:57:05;101038.06;;;21.60;48.74
17254;BME280;32542;52.832;13.816;2023-02-21T07:00:11;101047.81;;;21.61;48.87
17254;BME280;32542;52.832;13.816;2023-02-21T07:03:14;101057.50;;;21.62;48.95
17254;BME280;32542;52.832;13.816;2023-02-21T07:06:17;101058.38;;;21.62;49.10
17254;BME280;32542;52.832;13.816;2023-02-21T07:09:20;101059.25;;;21.63;49.16
17254;BME280;32542;52.832;13.816;2023-02-21T07:12:23;101062.75;;;21.63;49.19
17254;BME280;32542;52.832;13.816;2023-02-21T07:15:27;101051.31;;;21.61;49.03
17254;BME280;32542;52.832;13.816;2023-02-21T07:18:30;101055.78;;;21.61;49.25
17254;BME280;32542;52.832;13.816;2023-02-21T07:21:34;101073.50;;;21.62;49.19
17254;BME280;32542;52.832;13.816;2023-02-21T07:24:37;101084.16;;;21.62;49.20
17254;BME280;32542;52.832;13.816;2023-02-21T07:27:40;101087.78;;;21.61;49.30
17254;BME280;32542;52.832;13.816;2023-02-21T07:30:45;101093.09;;;21.61;49.30
17254;BME280;32542;52.832;13.816;2023-02-21T07:33:48;101089.50;;;21.62;49.31
17254;BME280;32542;52.832;13.816;2023-02-21T07:36:51;101102.72;;;21.63;49.26
17254;BME280;32542;52.832;13.816;2023-02-21T07:39:54;101096.56;;;21.63;49.14
17254;BME280;32542;52.832;13.816;2023-02-21T07:42:57;101098.28;;;21.64;49.15
17254;BME280;32542;52.832;13.816;2023-02-21T07:46:02;101097.34;;;21.65;49.07
17254;BME280;32542;52.832;13.816;2023-02-21T07:49:05;101086.69;;;21.65;49.15
17254;BME280;32542;52.832;13.816;2023-02-21T07:52:09;101090.19;;;21.65;49.15
17254;BME280;32542;52.832;13.816;2023-02-21T07:55:12;101086.69;;;21.65;49.03
17254;BME280;32542;52.832;13.816;2023-02-21T07:58:15;101099.16;;;21.64;49.03
17254;BME280;32542;52.832;13.816;2023-02-21T08:01:23;101101.81;;;21.64;49.00
17254;BME280;32542;52.832;13.816;2023-02-21T08:04:27;101124.06;;;21.63;49.05
17254;BME280;32542;52.832;13.816;2023-02-21T08:07:30;101138.25;;;21.64;48.98
17254;BME280;32542;52.832;13.816;2023-02-21T08:10:33;101144.53;;;21.63;48.91
17254;BME280;32542;52.832;13.816;2023-02-21T08:13:36;101155.19;;;21.63;48.99
17254;BME280;32542;52.832;13.816;2023-02-21T08:16:40;101138.34;;;21.62;48.98
17254;BME280;32542;52.832;13.816;2023-02-21T08:19:43;101149.91;;;21.61;48.85
17254;BME280;32542;52.832;13.816;2023-02-21T08:22:47;101161.44;;;21.62;48.92
17254;BME280;32542;52.832;13.816;2023-02-21T08:25:50;101177.44;;;21.62;48.98
17254;BME280;32542;52.832;13.816;2023-02-21T08:28:53;101169.44;;;21.62;48.95
17254;BME280;32542;52.832;13.816;2023-02-21T08:31:58;101183.56;;;21.64;48.87
17254;BME280;32542;52.832;13.816;2023-02-21T08:35:01;101186.31;;;21.62;48.92
17254;BME280;32542;52.832;13.816;2023-02-21T08:38:06;101182.69;;;21.63;49.00
17254;BME280;32542;52.832;13.816;2023-02-21T08:41:11;101203.19;;;21.63;48.89
17254;BME280;32542;52.832;13.816;2023-02-21T08:44:15;101194.31;;;21.62;48.87
17254;BME280;32542;52.832;13.816;2023-02-21T08:47:20;101208.50;;;21.63;48.81
17254;BME280;32542;52.832;13.816;2023-02-21T08:50:24;101204.09;;;21.62;48.86
17254;BME280;32542;52.832;13.816;2023-02-21T08:53:27;101212.97;;;21.62;48.90
17254;BME280;32542;52.832;13.816;2023-02-21T08:56:32;101229.81;;;21.63;48.83
17254;BME280;32542;52.832;13.816;2023-02-21T08:59:36;101218.22;;;21.64;48.90
17254;BME280;32542;52.832;13.816;2023-02-21T09:02:44;101213.84;;;21.63;48.86
17254;BME280;32542;52.832;13.816;2023-02-21T09:05:47;101220.09;;;21.62;48.74
17254;BME280;32542;52.832;13.816;2023-02-21T09:08:50;101219.16;;;21.63;48.75
17254;BME280;32542;52.832;13.816;2023-02-21T09:11:53;101220.88;;;21.64;48.71
17254;BME280;32542;52.832;13.816;2023-02-21T09:14:56;101234.19;;;21.64;48.70
17254;BME280;32542;52.832;13.816;2023-02-21T09:18:00;101233.28;;;21.65;48.61
17254;BME280;32542;52.832;13.816;2023-02-21T09:21:05;101235.16;;;21.63;48.50
17254;BME280;32542;52.832;13.816;2023-02-21T09:24:08;101233.28;;;21.65;48.46
17254;BME280;32542;52.832;13.816;2023-02-21T09:27:11;101230.66;;;21.63;48.27
17254;BME280;32542;52.832;13.816;2023-02-21T09:30:20;101241.31;;;21.63;48.13
17254;BME280;32542;52.832;13.816;2023-02-21T09:33:25;101244.94;;;21.62;48.24
17254;BME280;32542;52.832;13.816;2023-02-21T09:36:28;101244.94;;;21.62;48.15
17254;BME280;32542;52.832;13.816;2023-02-21T09:39:32;101249.41;;;21.62;48.16
17254;BME280;32542;52.832;13.816;2023-02-21T09:42:35;101247.53;;;21.64;48.19
17254;BME280;32542;52.832;13.816;2023-02-21T09:45:38;101241.31;;;21.63;48.05
17254;BME280;32542;52.832;13.816;2023-02-21T09:48:43;101244.78;;;21.65;48.01
17254;BME280;32542;52.832;13.816;2023-02-21T09:51:47;101266.91;;;21.67;47.91
17254;BME280;32542;52.832;13.816;2023-02-21T09:54:53;101254.47;;;21.68;47.91
17254;BME280;32542;52.832;13.816;2023-02-21T09:57:58;101261.53;;;21.69;47.74
17254;BME280;32542;52.832;13.816;2023-02-21T10:01:05;101261.53;;;21.69;47.67
17254;BME280;32542;52.832;13.816;2023-02-21T10:04:20;101270.44;;;21.68;47.71
17254;BME280;32542;52.832;13.816;2023-02-21T10:07:35;101268.66;;;21.68;47.70
17254;BME280;32542;52.832;13.816;2023-02-21T10:10:44;101290.91;;;21.67;47.61
17254;BME280;32542;52.832;13.816;2023-02-21T10:13:53;101274.97;;;21.66;47.42
17254;BME280;32542;52.832;13.816;2023-02-21T10:17:02;101281.13;;;21.68;47.53
17254;BME280;32542;52.832;13.816;2023-02-21T10:20:13;101282.06;;;21.67;47.48
17254;BME280;32542;52.832;13.816;2023-02-21T10:23:18;101283.84;;;21.66;47.42
17254;BME280;32542;52.832;13.816;2023-02-21T10:26:26;101282.97;;;21.66;47.46
17254;BME280;32542;52.832;13.816;2023-02-21T10:29:38;101290.97;;;21.66;47.34
17254;BME280;32542;52.832;13.816;2023-02-21T10:32:44;101299.91;;;21.65;47.57
17254;BME280;32542;52.832;13.816;2023-02-21T10:35:49;101288.31;;;21.66;47.43
17254;BME280;32542;52.832;13.816;2023-02-21T10:38:58;101275.94;;;21.65;47.50
17254;BME280;32542;52.832;13.816;2023-02-21T10:42:04;101290.97;;;21.66;47.47
17254;BME280;32542;52.832;13.816;2023-02-21T10:45:08;101299.91;;;21.65;47.14
17254;BME280;32542;52.832;13.816;2023-02-21T10:48:14;101309.72;;;21.64;47.06
17254;BME280;32542;52.832;13.816;2023-02-21T10:51:30;101310.59;;;21.65;46.96
17254;BME280;32542;52.832;13.816;2023-02-21T10:54:33;101314.16;;;21.64;46.98
17254;BME280;32542;52.832;13.816;2023-02-21T10:57:40;101307.13;;;21.63;47.04
17254;BME280;32542;52.832;13.816;2023-02-21T11:00:45;101304.44;;;21.63;46.72
17254;BME280;32542;52.832;13.816;2023-02-21T11:03:50;101301.00;;;21.61;46.65
17254;BME280;32542;52.832;13.816;2023-02-21T11:06:57;101306.31;;;21.61;46.72
17254;BME280;32542;52.832;13.816;2023-02-21T11:10:23;101298.31;;;21.61;46.65
17254;BME280;32542;52.832;13.816;2023-02-21T11:13:28;101293.91;;;21.60;46.78
17254;BME280;32542;52.832;13.816;2023-02-21T11:16:32;101289.44;;;21.60;46.81
17254;BME280;32542;52.832;13.816;2023-02-21T11:19:48;101291.25;;;21.60;46.79
17254;BME280;32542;52.832;13.816;2023-02-21T11:22:53;101285.00;;;21.61;46.82
17254;BME280;32542;52.832;13.816;2023-02-21T11:25:59;101284.13;;;21.60;46.65
17254;BME280;32542;52.832;13.816;2023-02-21T11:29:09;101293.91;;;21.60;46.36
17254;BME280;32542;52.832;13.816;2023-02-21T11:32:22;101289.44;;;21.60;46.25
17254;BME280;32542;52.832;13.816;2023-02-21T11:35:28;101293.91;;;21.60;46.18
17254;BME280;32542;52.832;13.816;2023-02-21T11:38:34;101299.25;;;21.60;46.04
17254;BME280;32542;52.832;13.816;2023-02-21T11:41:45;101287.69;;;21.59;46.10
17254;BME280;32542;52.832;13.816;2023-02-21T11:44:50;101299.25;;;21.60;46.00
17254;BME280;32542;52.832;13.816;2023-02-21T11:48:14;101295.66;;;21.61;46.07
17254;BME280;32542;52.832;13.816;2023-02-21T11:51:28;101297.44;;;21.60;46.01
17254;BME280;32542;52.832;13.816;2023-02-21T11:54:34;101293.00;;;21.61;45.96
17254;BME280;32542;52.832;13.816;2023-02-21T11:57:43;101291.16;;;21.61;46.04
17254;BME280;32542;52.832;13.816;2023-02-21T12:00:50;101285.78;;;21.63;45.93
17254;BME280;32542;52.832;13.816;2023-02-21T12:04:12;101299.13;;;21.63;45.93
17254;BME280;32542;52.832;13.816;2023-02-21T12:07:25;101291.06;;;21.64;45.90
17254;BME280;32542;52.832;13.816;2023-02-21T12:10:42;101294.59;;;21.65;45.78
17254;BME280;32542;52.832;13.816;2023-02-21T12:13:55;101297.25;;;21.65;45.75
17254;BME280;32542;52.832;13.816;2023-02-21T12:17:13;101304.44;;;21.63;45.52
17254;BME280;32542;52.832;13.816;2023-02-21T12:20:24;101290.25;;;21.62;45.38
17254;BME280;32542;52.832;13.816;2023-02-21T12:23:35;101303.66;;;21.61;44.99
17254;BME280;32542;52.832;13.816;2023-02-21T12:26:49;101291.25;;;21.60;44.33
17254;BME280;32542;52.832;13.816;2023-02-21T12:33:36;101291.34;;;21.57;43.37
17254;BME280;32542;52.832;13.816;2023-02-21T12:40:15;101287.91;;;21.55;43.02
17254;BME280;32542;52.832;13.816;2023-02-21T12:43:31;101286.09;;;21.55;42.69
17254;BME280;32542;52.832;13.816;2023-02-21T12:46:41;101294.97;;;21.56;42.50
17254;BME280;32542;52.832;13.816;2023-02-21T12:49:53;101293.19;;;21.56;42.67
17254;BME280;32542;52.832;13.816;2023-02-21T12:53:02;101298.44;;;21.58;42.94
17254;BME280;32542;52.832;13.816;2023-02-21T12:56:11;101298.38;;;21.59;43.07
17254;BME280;32542;52.832;13.816;2023-02-21T12:59:20;101301.00;;;21.61;43.18
17254;BME280;32542;52.832;13.816;2023-02-21T13:02:35;101296.47;;;21.63;43.23
17254;BME280;32542;52.832;13.816;2023-02-21T13:05:43;101296.31;;;21.66;43.21
17254;BME280;32542;52.832;13.816;2023-02-21T13:08:55;101294.44;;;21.68;43.31
17254;BME280;32542;52.832;13.816;2023-02-21T13:12:05;101296.13;;;21.70;43.31
17254;BME280;32542;52.832;13.816;2023-02-21T13:15:16;101300.44;;;21.73;43.25
17254;BME280;32542;52.832;13.816;2023-02-21T13:18:24;101296.84;;;21.74;43.41
17254;BME280;32542;52.832;13.816;2023-02-21T13:21:43;101298.59;;;21.75;43.54
17254;BME280;32542;52.832;13.816;2023-02-21T13:24:55;101303.91;;;21.75;43.69
17254;BME280;32542;52.832;13.816;2023-02-21T13:28:07;101301.31;;;21.73;43.67
17254;BME280;32542;52.832;13.816;2023-02-21T13:31:19;101300.44;;;21.73;43.73
17254;BME280;32542;52.832;13.816;2023-02-21T13:34:26;101298.69;;;21.72;43.83
17254;BME280;32542;52.832;13.816;2023-02-21T13:37:32;101297.00;;;21.71;43.94
17254;BME280;32542;52.832;13.816;2023-02-21T13:40:39;101295.25;;;21.70;43.92
17254;BME280;32542;52.832;13.816;2023-02-21T13:43:46;101301.53;;;21.69;44.10
17254;BME280;32542;52.832;13.816;2023-02-21T13:47:12;101291.78;;;21.68;44.20
17254;BME280;32542;52.832;13.816;2023-02-21T13:50:44;101285.56;;;21.67;44.25
17254;BME280;32542;52.832;13.816;2023-02-21T13:54:07;101279.41;;;21.67;44.37
17254;BME280;32542;52.832;13.816;2023-02-21T13:57:28;101279.41;;;21.67;44.42
17254;BME280;32542;52.832;13.816;2023-02-21T14:00:49;101284.72;;;21.67;44.48
17254;BME280;32542;52.832;13.816;2023-02-21T14:03:54;101282.91;;;21.67;44.55
17254;BME280;32542;52.832;13.816;2023-02-21T14:06:58;101278.44;;;21.68;44.71
17254;BME280;32542;52.832;13.816;2023-02-21T14:10:02;101287.31;;;21.68;44.94
17254;BME280;32542;52.832;13.816;2023-02-21T14:13:14;101289.03;;;21.69;45.23
17254;BME280;32542;52.832;13.816;2023-02-21T14:16:22;101295.25;;;21.70;45.59
17254;BME280;32542;52.832;13.816;2023-02-21T14:19:33;101289.91;;;21.70;45.91
17254;BME280;32542;52.832;13.816;2023-02-21T14:22:37;101289.91;;;21.70;45.90
17254;BME280;32542;52.832;13.816;2023-02-21T14:25:40;101300.56;;;21.70;45.99
17254;BME280;32542;52.832;13.816;2023-02-21T14:29:00;101303.22;;;21.70;46.22
17254;BME280;32542;52.832;13.816;2023-02-21T14:32:23;101290.78;;;21.70;46.41
17254;BME280;32542;52.832;13.816;2023-02-21T14:35:32;101303.31;;;21.68;46.43
17254;BME280;32542;52.832;13.816;2023-02-21T14:38:39;101298.84;;;21.69;46.55
17254;BME280;32542;52.832;13.816;2023-02-21T14:41:55;101303.31;;;21.68;46.58
17254;BME280;32542;52.832;13.816;2023-02-21T14:45:14;101301.56;;;21.67;46.55
17254;BME280;32542;52.832;13.816;2023-02-21T14:48:34;101306.06;;;21.67;46.49
17254;BME280;32542;52.832;13.816;2023-02-21T14:59:14;101320.22;;;21.67;46.55
17254;BME280;32542;52.832;13.816;2023-02-21T15:02:25;101324.72;;;21.67;46.66
17254;BME280;32542;52.832;13.816;2023-02-21T15:05:33;101331.84;;;21.66;46.57
17254;BME280;32542;52.832;13.816;2023-02-21T15:08:43;101327.38;;;21.67;46.68
17254;BME280;32542;52.832;13.816;2023-02-21T15:11:47;101331.84;;;21.66;46.69
17254;BME280;32542;52.832;13.816;2023-02-21T15:14:52;101338.09;;;21.65;46.73
17254;BME280;32542;52.832;13.816;2023-02-21T15:17:58;101338.97;;;21.66;46.83
17254;BME280;32542;52.832;13.816;2023-02-21T15:21:10;101340.72;;;21.67;46.86
17254;BME280;32542;52.832;13.816;2023-02-21T15:24:18;101340.75;;;21.65;46.83
17254;BME280;32542;52.832;13.816;2023-02-21T15:27:23;101340.75;;;21.65;46.78
17254;BME280;32542;52.832;13.816;2023-02-21T15:30:31;101348.69;;;21.67;46.73
17254;BME280;32542;52.832;13.816;2023-02-21T15:33:36;101349.53;;;21.67;46.78
17254;BME280;32542;52.832;13.816;2023-02-21T15:36:40;101360.16;;;21.69;46.84
17254;BME280;32542;52.832;13.816;2023-02-21T15:39:49;101363.66;;;21.69;46.88
17254;BME280;32542;52.832;13.816;2023-02-21T15:42:56;101355.69;;;21.69;46.81
17254;BME280;32542;52.832;13.816;2023-02-21T15:46:00;101358.34;;;21.69;46.96
17254;BME280;32542;52.832;13.816;2023-02-21T15:49:05;101353.00;;;21.69;46.94
17254;BME280;32542;52.832;13.816;2023-02-21T15:52:25;101372.53;;;21.70;47.01
17254;BME280;32542;52.832;13.816;2023-02-21T15:55:30;101368.16;;;21.69;46.96
17254;BME280;32542;52.832;13.816;2023-02-21T15:58:33;101363.75;;;21.68;47.05
17254;BME280;32542;52.832;13.816;2023-02-21T16:01:36;101366.41;;;21.68;47.02
17254;BME280;32542;52.832;13.816;2023-02-21T16:04:41;101364.69;;;21.67;46.95
17254;BME280;32542;52.832;13.816;2023-02-21T16:07:44;101370.88;;;21.67;46.96
17254;BME280;32542;52.832;13.816;2023-02-21T16:11:00;101374.34;;;21.69;47.05
17254;BME280;32542;52.832;13.816;2023-02-21T16:14:04;101377.88;;;21.70;47.04
17254;BME280;32542;52.832;13.816;2023-02-21T16:17:21;101377.88;;;21.70;47.00
17254;BME280;32542;52.832;13.816;2023-02-21T16:20:27;101385.88;;;21.70;46.93
17254;BME280;32542;52.832;13.816;2023-02-21T16:23:33;101390.28;;;21.71;46.97
17254;BME280;32542;52.832;13.816;2023-02-21T16:26:38;101392.06;;;21.70;46.98
17254;BME280;32542;52.832;13.816;2023-02-21T16:29:41;101398.28;;;21.71;47.03
17254;BME280;32542;52.832;13.816;2023-02-21T16:32:45;101400.06;;;21.70;47.04
17254;BME280;32542;52.832;13.816;2023-02-21T16:35:49;101400.06;;;21.70;47.05
17254;BME280;32542;52.832;13.816;2023-02-21T16:38:53;101399.19;;;21.70;47.06